Time;durP1;ratioP1;P1;durP2;ratioP2;P2;SDS_P1;SDS_P2;PMS_P1;PMS_P2;Temp;Humidity;BMP_temperature;BMP_pressure;BME280_temperature;BME280_humidity;BME280_pressure;Samples;Min_cycle;Max_cycle;Signal;HPM_P1;HPM_P2
2022/05/21 00:00:26;;;;;;;1.97;0.90;;;18.80;99.90;;;;;;4987743;28;20224;-92
2022/05/21 00:03:10;;;;;;;2.70;0.97;;;18.90;99.90;;;;;;4988725;28;20246;-91
2022/05/21 00:05:53;;;;;;;4.20;0.80;;;18.70;99.90;;;;;;4984014;28;20214;-92
2022/05/21 00:08:26;;;;;;;1.97;1.00;;;18.70;99.90;;;;;;5175740;23;20213;-92
2022/05/21 00:10:59;;;;;;;2.03;0.80;;;18.70;99.90;;;;;;5073923;28;20200;-90
2022/05/21 00:13:33;;;;;;;1.60;0.90;;;18.80;99.90;;;;;;5074881;28;20196;-91
2022/05/21 00:16:36;;;;;;;3.33;1.00;;;18.80;99.90;;;;;;5068962;28;20323;-91
2022/05/21 00:22:01;;;;;;;3.53;1.00;;;18.20;99.90;;;;;;5072405;28;20212;-91
2022/05/21 00:24:34;;;;;;;1.70;0.90;;;18.40;99.90;;;;;;5056104;28;20225;-92
2022/05/21 00:27:07;;;;;;;1.73;1.07;;;18.10;99.90;;;;;;5071346;28;20212;-92
2022/05/21 00:29:43;;;;;;;1.47;0.83;;;18.10;99.90;;;;;;5072563;28;20205;-92
2022/05/21 00:32:21;;;;;;;3.67;1.10;;;18.10;99.90;;;;;;5074692;28;20230;-92
2022/05/21 00:35:00;;;;;;;2.73;0.80;;;18.20;99.90;;;;;;5065222;28;20224;-92
2022/05/21 00:37:32;;;;;;;1.57;0.90;;;18.20;99.90;;;;;;5056541;28;20197;-92
2022/05/21 00:40:03;;;;;;;3.27;0.80;;;18.40;99.90;;;;;;5057021;28;20197;-92
2022/05/21 00:42:34;;;;;;;1.77;1.00;;;18.60;99.90;;;;;;5060337;28;20223;-93
2022/05/21 00:45:16;;;;;;;2.33;0.90;;;18.60;99.90;;;;;;5060370;28;20221;-92
2022/05/21 00:48:01;;;;;;;1.93;0.80;;;18.50;99.90;;;;;;5060256;28;20204;-92
2022/05/21 00:50:33;;;;;;;1.30;0.80;;;18.40;99.90;;;;;;5057567;28;20217;-91
2022/05/21 00:53:11;;;;;;;2.10;0.90;;;18.50;99.90;;;;;;5040793;28;20235;-91
2022/05/21 00:55:51;;;;;;;2.20;0.80;;;18.20;99.90;;;;;;5056653;28;20740;-91
2022/05/21 01:01:17;;;;;;;2.13;0.93;;;18.90;99.90;;;;;;5055965;28;20573;-92
2022/05/21 01:03:53;;;;;;;2.37;1.00;;;19.70;99.90;;;;;;5055386;28;20212;-91
2022/05/21 01:06:38;;;;;;;2.73;0.90;;;20.00;99.90;;;;;;5122820;22;20229;-92
2022/05/21 01:09:11;;;;;;;1.60;1.10;;;20.50;99.90;;;;;;5014308;28;20210;-92
2022/05/21 01:11:43;;;;;;;2.27;0.80;;;21.20;99.90;;;;;;5013281;28;20246;-92
2022/05/21 01:14:20;;;;;;;2.13;1.13;;;21.10;99.90;;;;;;5015357;28;20266;-92
2022/05/21 01:16:52;;;;;;;3.03;0.90;;;21.20;99.90;;;;;;5017373;28;20316;-92
2022/05/21 01:19:29;;;;;;;1.63;1.03;;;20.50;99.90;;;;;;5015946;28;20206;-92
2022/05/21 01:22:10;;;;;;;1.20;0.90;;;20.40;99.90;;;;;;5014788;28;20229;-93
2022/05/21 01:24:45;;;;;;;2.00;0.90;;;20.20;99.90;;;;;;5014949;28;20210;-93
2022/05/21 01:27:17;;;;;;;2.63;1.30;;;21.00;99.90;;;;;;5014583;28;20209;-93
2022/05/21 01:29:53;;;;;;;1.67;0.80;;;21.30;99.90;;;;;;5013602;28;20237;-94
2022/05/21 01:32:28;;;;;;;1.73;0.97;;;21.80;99.90;;;;;;4999692;28;20210;-94
2022/05/21 01:35:01;;;;;;;2.10;0.90;;;21.40;99.90;;;;;;5014893;28;20226;-92
2022/05/21 01:37:34;;;;;;;1.83;0.77;;;21.50;99.90;;;;;;5016978;28;20218;-93
2022/05/21 01:40:09;;;;;;;1.97;0.90;;;21.40;99.90;;;;;;5001674;28;20230;-94
2022/05/21 01:42:43;;;;;;;1.10;0.80;;;21.10;99.90;;;;;;5018571;28;20218;-93
2022/05/21 01:45:16;;;;;;;2.27;1.00;;;21.40;99.90;;;;;;5002504;28;20212;-93
2022/05/21 01:47:48;;;;;;;2.17;0.80;;;20.60;99.90;;;;;;5017663;28;20210;-91
2022/05/21 01:58:27;;;;;;;1.73;0.70;;;21.60;99.90;;;;;;5053642;28;20582;-92
2022/05/21 02:00:59;;;;;;;2.10;0.70;;;21.60;99.90;;;;;;5035915;28;20210;-92
2022/05/21 02:03:33;;;;;;;2.60;0.80;;;21.30;99.90;;;;;;5033249;28;20210;-92
2022/05/21 02:06:04;;;;;;;0.80;0.60;;;20.60;99.90;;;;;;5033797;28;20201;-92
2022/05/21 02:08:36;;;;;;;0.80;0.60;;;19.40;99.90;;;;;;5033646;28;20825;-91
2022/05/21 02:11:12;;;;;;;2.27;0.90;;;18.30;99.90;;;;;;5034915;28;20186;-92
2022/05/21 02:19:26;;;;;;;1.10;0.80;;;16.70;99.90;;;;;;5128258;23;20222;-92
2022/05/21 02:21:59;;;;;;;1.73;0.70;;;16.50;99.90;;;;;;5009574;28;20680;-92
2022/05/21 02:24:38;;;;;;;1.43;0.60;;;16.30;99.90;;;;;;5013815;28;20199;-91
2022/05/21 02:27:14;;;;;;;0.80;0.60;;;16.20;99.90;;;;;;5017607;28;20194;-91
2022/05/21 02:54:03;;;;;;;3.93;1.13;;;15.20;99.90;;;;;;5035409;28;20219;-91
2022/05/21 02:56:35;;;;;;;1.30;0.90;;;15.10;99.90;;;;;;5038229;28;20236;-91
2022/05/21 02:59:14;;;;;;;2.70;1.00;;;15.10;99.90;;;;;;5036193;28;20205;-91
2022/05/21 03:01:53;;;;;;;3.10;0.90;;;15.00;99.90;;;;;;5033158;28;20201;-92
2022/05/21 03:04:25;;;;;;;2.30;1.10;;;15.00;99.90;;;;;;5035568;28;20217;-91
2022/05/21 03:06:58;;;;;;;3.27;0.87;;;15.00;99.90;;;;;;5033333;28;20228;-90
2022/05/21 03:12:21;;;;;;;1.13;0.80;;;14.90;99.90;;;;;;5031063;28;20205;-91
2022/05/21 03:14:54;;;;;;;1.70;0.90;;;14.70;99.90;;;;;;5030436;28;20217;-90
2022/05/21 03:17:30;;;;;;;2.33;1.20;;;14.70;99.90;;;;;;5029931;28;20241;-91
2022/05/21 03:20:03;;;;;;;3.23;1.13;;;14.60;99.90;;;;;;5028132;28;20213;-91
2022/05/21 03:22:36;;;;;;;2.80;1.13;;;14.50;99.90;;;;;;5022824;28;20193;-90
2022/05/21 03:25:12;;;;;;;3.07;1.03;;;14.40;99.90;;;;;;5022334;28;20214;-91
2022/05/21 03:27:45;;;;;;;2.23;1.10;;;14.30;99.90;;;;;;5024977;28;20217;-90
2022/05/21 03:30:26;;;;;;;2.70;1.30;;;14.30;99.90;;;;;;5027189;28;20230;-91
2022/05/21 03:33:03;;;;;;;1.93;1.17;;;14.30;99.90;;;;;;5026893;28;20220;-91
2022/05/21 03:35:42;;;;;;;2.43;1.13;;;14.30;99.90;;;;;;5031077;28;20215;-92
2022/05/21 03:38:14;;;;;;;3.93;1.33;;;14.20;99.90;;;;;;5030503;28;20237;-91
2022/05/21 03:40:54;;;;;;;4.30;1.20;;;14.10;99.90;;;;;;5031412;28;20214;-91
2022/05/21 03:43:27;;;;;;;3.10;1.30;;;13.90;99.90;;;;;;5028427;28;20223;-91
2022/05/21 03:45:59;;;;;;;3.17;1.37;;;13.80;99.90;;;;;;5026057;28;20210;-91
2022/05/21 03:48:35;;;;;;;2.30;1.27;;;13.70;99.90;;;;;;5026758;28;20209;-92
2022/05/21 03:51:08;;;;;;;4.07;1.13;;;13.50;99.90;;;;;;5023228;28;20219;-91
2022/05/21 03:53:40;;;;;;;2.30;1.50;;;13.40;99.90;;;;;;5031312;28;20240;-91
2022/05/21 03:56:14;;;;;;;3.27;1.30;;;13.30;99.90;;;;;;5030118;28;20259;-92
2022/05/21 03:58:46;;;;;;;2.67;1.40;;;13.20;99.90;;;;;;5029768;28;20189;-91
2022/05/21 04:01:19;;;;;;;2.83;1.00;;;13.10;99.90;;;;;;5027990;28;20206;-92
2022/05/21 04:03:54;;;;;;;4.10;1.93;;;13.10;99.90;;;;;;5014095;28;20222;-92
2022/05/21 04:06:26;;;;;;;3.73;1.47;;;13.00;99.90;;;;;;5011029;28;20237;-92
2022/05/21 04:08:57;;;;;;;2.43;1.30;;;12.80;99.90;;;;;;5012530;28;20218;-92
2022/05/21 04:11:31;;;;;;;3.00;1.60;;;12.70;99.90;;;;;;5005861;28;20229;-92
2022/05/21 04:14:04;;;;;;;4.83;1.60;;;12.50;99.90;;;;;;5005746;28;20216;-92
2022/05/21 04:16:35;;;;;;;6.60;1.80;;;12.40;99.90;;;;;;5013163;28;20253;-92
2022/05/21 04:19:07;;;;;;;4.40;1.90;;;12.40;99.90;;;;;;5014070;28;20261;-90
2022/05/21 04:21:39;;;;;;;4.27;1.87;;;12.40;99.90;;;;;;5006644;28;20260;-91
2022/05/21 04:24:10;;;;;;;3.10;1.73;;;12.30;99.90;;;;;;5003979;28;20206;-91
2022/05/21 04:26:44;;;;;;;3.97;2.10;;;12.20;99.90;;;;;;5011485;28;20225;-91
2022/05/21 04:29:17;;;;;;;5.60;1.80;;;12.20;99.90;;;;;;5020375;28;20595;-92
2022/05/21 04:31:49;;;;;;;6.03;2.27;;;12.20;99.90;;;;;;5020180;28;20209;-91
2022/05/21 04:34:25;;;;;;;4.37;1.80;;;12.10;99.90;;;;;;5021600;28;20266;-91
2022/05/21 04:36:56;;;;;;;5.50;1.90;;;12.00;99.90;;;;;;5025454;28;20283;-91
2022/05/21 04:39:35;;;;;;;3.87;1.90;;;11.90;99.90;;;;;;5024224;28;20197;-91
2022/05/21 04:42:09;;;;;;;4.10;2.13;;;11.90;99.90;;;;;;5026470;28;20217;-91
2022/05/21 04:44:41;;;;;;;4.10;2.27;;;11.80;99.90;;;;;;5021697;28;20223;-91
2022/05/21 04:47:12;;;;;;;5.90;2.60;;;11.70;99.90;;;;;;5021476;28;20630;-92
2022/05/21 04:49:44;;;;;;;5.93;1.90;;;11.70;99.90;;;;;;5021095;28;20411;-92
2022/05/21 04:52:15;;;;;;;4.00;1.90;;;11.70;99.90;;;;;;5026582;28;20701;-91
2022/05/21 04:54:47;;;;;;;7.77;2.50;;;11.60;99.90;;;;;;5027419;28;20237;-92
2022/05/21 04:57:21;;;;;;;3.53;1.90;;;11.70;99.90;;;;;;5022122;28;20233;-92
2022/05/21 04:59:52;;;;;;;3.30;2.00;;;11.60;99.90;;;;;;5021854;28;20296;-91
2022/05/21 05:02:24;;;;;;;4.90;1.80;;;11.60;99.90;;;;;;5022747;28;20218;-91
2022/05/21 05:04:55;;;;;;;3.97;1.70;;;11.60;99.90;;;;;;5020253;28;20213;-92
2022/05/21 05:07:26;;;;;;;5.00;2.00;;;11.50;99.90;;;;;;5030634;28;20194;-89
2022/05/21 05:09:57;;;;;;;4.43;2.10;;;11.50;99.90;;;;;;5038736;28;20206;-90
2022/05/21 05:12:31;;;;;;;4.03;2.37;;;11.40;99.90;;;;;;5039713;28;20264;-90
2022/05/21 05:15:05;;;;;;;5.40;2.90;;;11.40;99.90;;;;;;5034478;28;20252;-89
2022/05/21 05:17:36;;;;;;;4.33;3.10;;;11.40;99.90;;;;;;5028949;28;20353;-91
2022/05/21 05:20:08;;;;;;;7.70;2.73;;;11.40;99.90;;;;;;5026085;28;20714;-90
2022/05/21 05:22:40;;;;;;;6.43;2.90;;;11.30;99.90;;;;;;5023043;28;20210;-91
2022/05/21 05:25:12;;;;;;;5.43;2.23;;;11.30;99.90;;;;;;5024660;28;20651;-90
2022/05/21 05:27:47;;;;;;;3.80;2.00;;;11.30;99.90;;;;;;5022061;28;20206;-90
2022/05/21 05:30:20;;;;;;;4.50;1.87;;;11.30;99.90;;;;;;5022128;28;20236;-91
2022/05/21 05:32:52;;;;;;;5.33;2.10;;;11.20;99.90;;;;;;5007631;28;20265;-91
2022/05/21 05:35:23;;;;;;;3.77;2.20;;;11.20;99.90;;;;;;5002111;28;20210;-91
2022/05/21 05:37:54;;;;;;;3.73;2.50;;;11.10;99.90;;;;;;5002375;28;20234;-91
2022/05/21 05:40:26;;;;;;;6.70;2.23;;;11.10;99.90;;;;;;5001918;28;20210;-91
2022/05/21 05:43:00;;;;;;;5.63;2.80;;;11.10;99.90;;;;;;5003229;28;20588;-91
2022/05/21 05:45:31;;;;;;;3.93;1.90;;;11.00;99.90;;;;;;5005722;28;20239;-90
2022/05/21 05:48:04;;;;;;;6.07;2.20;;;11.00;99.90;;;;;;5008038;28;20210;-91
2022/05/21 05:50:35;;;;;;;5.60;2.40;;;10.90;99.90;;;;;;5009090;28;20261;-91
2022/05/21 05:53:09;;;;;;;4.10;2.20;;;10.90;99.90;;;;;;5018359;28;20210;-91
2022/05/21 05:55:43;;;;;;;4.37;2.00;;;10.90;99.90;;;;;;5018158;28;20221;-91
2022/05/21 06:01:01;;;;;;;9.40;3.40;;;10.70;99.90;;;;;;4976063;28;20268;-91
2022/05/21 06:03:32;;;;;;;3.83;2.20;;;10.60;99.90;;;;;;5005417;28;20237;-91
2022/05/21 06:06:04;;;;;;;4.27;2.10;;;10.60;99.90;;;;;;5004727;28;20627;-89
2022/05/21 06:11:27;;;;;;;3.50;2.17;;;10.50;99.90;;;;;;4940494;29;20239;-91
2022/05/21 06:14:02;;;;;;;4.60;2.13;;;10.50;99.90;;;;;;4944685;29;20224;-92
2022/05/21 06:16:34;;;;;;;4.43;2.00;;;10.40;99.90;;;;;;4942124;29;20197;-91
2022/05/21 06:19:06;;;;;;;4.37;2.57;;;10.30;99.90;;;;;;4942707;28;20275;-92
2022/05/21 06:21:37;;;;;;;4.67;1.87;;;10.20;99.90;;;;;;4944272;28;20212;-92
2022/05/21 06:24:09;;;;;;;4.13;2.10;;;10.20;99.90;;;;;;4940726;29;20263;-91
2022/05/21 06:26:40;;;;;;;4.13;2.00;;;10.20;99.90;;;;;;4942894;28;20236;-91
2022/05/21 06:29:14;;;;;;;5.13;2.10;;;10.20;99.90;;;;;;4942093;29;20754;-92
2022/05/21 06:31:45;;;;;;;3.67;1.77;;;10.20;99.90;;;;;;4940285;29;20214;-92
2022/05/21 06:34:17;;;;;;;5.23;2.20;;;10.20;99.90;;;;;;4943498;29;20268;-90
2022/05/21 06:36:48;;;;;;;4.47;2.07;;;10.10;99.90;;;;;;4941197;29;20553;-90
2022/05/21 06:39:20;;;;;;;4.50;2.10;;;10.00;99.90;;;;;;4943965;29;20240;-91
2022/05/21 06:41:51;;;;;;;8.03;2.20;;;10.00;99.90;;;;;;4936880;29;20264;-90
2022/05/21 06:44:25;;;;;;;4.60;2.33;;;10.00;99.90;;;;;;4922039;29;20296;-92
2022/05/21 06:46:57;;;;;;;3.50;2.20;;;10.00;99.90;;;;;;4937200;29;20209;-91
2022/05/21 06:49:29;;;;;;;4.67;2.20;;;10.00;99.90;;;;;;4939485;29;20248;-90
2022/05/21 06:52:00;;;;;;;4.17;1.90;;;10.00;99.90;;;;;;4940753;29;20279;-90
2022/05/21 06:54:31;;;;;;;4.07;2.27;;;10.10;99.90;;;;;;4941426;28;20642;-90
2022/05/21 06:57:02;;;;;;;6.10;2.07;;;10.00;99.90;;;;;;4943600;29;20275;-90
2022/05/21 06:59:35;;;;;;;3.03;2.10;;;10.10;99.90;;;;;;4940512;29;20674;-91
2022/05/21 07:02:07;;;;;;;6.80;1.90;;;10.00;99.90;;;;;;4934704;29;20257;-90
2022/05/21 07:07:43;;;;;;;8.00;1.73;;;10.00;99.90;;;;;;4922415;29;20686;-90
2022/05/21 07:10:20;;;;;;;6.27;2.00;;;9.90;99.90;;;;;;4930301;29;20227;-91
2022/05/21 07:12:52;;;;;;;3.83;2.00;;;9.90;99.90;;;;;;4927119;29;20213;-91
2022/05/21 07:15:26;;;;;;;3.80;2.00;;;9.80;99.90;;;;;;4923656;29;20265;-91
2022/05/21 07:18:03;;;;;;;4.67;2.30;;;9.70;99.90;;;;;;4925740;28;20220;-91
2022/05/21 07:20:36;;;;;;;8.17;2.20;;;9.60;99.90;;;;;;4924909;29;20221;-91
2022/05/21 07:23:08;;;;;;;6.37;2.33;;;9.60;99.90;;;;;;4929427;29;20228;-91
2022/05/21 07:25:39;;;;;;;5.00;2.20;;;9.60;99.90;;;;;;4936814;29;20609;-91
2022/05/21 07:28:11;;;;;;;5.17;2.40;;;9.60;99.90;;;;;;4931910;29;20292;-91
2022/05/21 07:30:45;;;;;;;4.07;2.00;;;9.50;99.90;;;;;;4927518;29;20608;-92
2022/05/21 07:33:18;;;;;;;4.97;2.00;;;9.50;99.90;;;;;;4941574;29;20212;-91
2022/05/21 07:35:49;;;;;;;5.60;2.17;;;9.50;99.90;;;;;;4947491;28;20219;-91
2022/05/21 07:38:21;;;;;;;6.60;2.30;;;9.50;99.90;;;;;;4942179;29;20255;-91
2022/05/21 07:40:53;;;;;;;4.50;2.20;;;9.50;99.90;;;;;;4940533;29;20220;-92
2022/05/21 07:43:27;;;;;;;7.53;2.10;;;9.40;99.90;;;;;;4942215;29;20208;-91
2022/05/21 07:46:06;;;;;;;5.37;2.37;;;9.40;99.90;;;;;;4942915;29;20687;-91
2022/05/21 07:48:37;;;;;;;4.67;2.40;;;9.40;99.90;;;;;;4941611;29;20578;-91
2022/05/21 07:51:10;;;;;;;5.37;2.10;;;9.30;99.90;;;;;;4939582;29;20200;-91
2022/05/21 07:53:42;;;;;;;7.57;2.20;;;9.30;99.90;;;;;;4952394;29;20204;-91
2022/05/21 07:56:19;;;;;;;7.00;2.50;;;9.20;99.90;;;;;;4952747;29;20216;-91
2022/05/21 07:58:51;;;;;;;5.73;2.17;;;9.20;99.90;;;;;;4951877;29;20231;-92
2022/05/21 08:01:25;;;;;;;4.50;2.37;;;9.20;99.90;;;;;;4939397;29;20224;-92
2022/05/21 08:03:56;;;;;;;6.97;2.10;;;9.20;99.90;;;;;;4945657;28;20216;-91
2022/05/21 08:06:27;;;;;;;6.10;2.37;;;9.20;99.90;;;;;;4945557;29;20229;-92
2022/05/21 08:08:59;;;;;;;4.53;2.03;;;9.20;99.90;;;;;;4949485;29;20211;-93
2022/05/21 08:11:30;;;;;;;5.13;1.87;;;9.20;99.90;;;;;;4945864;29;20280;-91
2022/05/21 08:14:02;;;;;;;4.50;1.90;;;9.10;99.90;;;;;;4941650;28;20677;-92
2022/05/21 08:16:36;;;;;;;6.17;2.30;;;9.10;99.90;;;;;;4941571;29;20235;-92
2022/05/21 08:19:07;;;;;;;7.73;2.17;;;9.10;99.90;;;;;;4942416;29;20243;-91
2022/05/21 08:21:46;;;;;;;8.10;2.20;;;9.00;99.90;;;;;;4944085;29;20188;-91
2022/05/21 08:27:08;;;;;;;3.70;2.10;;;8.90;99.90;;;;;;4942977;29;20240;-92
2022/05/21 08:29:39;;;;;;;7.20;2.10;;;8.80;99.90;;;;;;4932361;28;20220;-92
2022/05/21 08:32:14;;;;;;;5.73;2.30;;;8.80;99.90;;;;;;4907441;29;20249;-92
2022/05/21 08:34:45;;;;;;;5.93;2.40;;;8.70;99.90;;;;;;4923857;29;20209;-92
2022/05/21 08:37:16;;;;;;;4.03;1.90;;;8.80;99.90;;;;;;4921789;29;20295;-91
2022/05/21 08:39:50;;;;;;;7.73;2.00;;;8.80;99.90;;;;;;4920892;29;20252;-91
2022/05/21 08:42:30;;;;;;;3.93;2.30;;;8.70;99.90;;;;;;4920693;29;20304;-91
2022/05/21 08:45:13;;;;;;;5.90;2.10;;;8.70;99.90;;;;;;4920819;29;20216;-92
2022/05/21 08:47:55;;;;;;;5.07;2.20;;;8.70;99.90;;;;;;4919724;29;20237;-91
2022/05/21 08:50:32;;;;;;;7.00;2.20;;;8.70;99.90;;;;;;4920142;29;20213;-91
2022/05/21 08:53:08;;;;;;;5.83;2.10;;;8.60;99.90;;;;;;4921439;29;20212;-91
2022/05/21 08:55:42;;;;;;;5.27;2.20;;;8.60;99.90;;;;;;4925167;29;20233;-91
2022/05/21 08:58:19;;;;;;;9.23;2.37;;;8.60;99.90;;;;;;4944590;29;20221;-91
2022/05/21 09:00:53;;;;;;;6.77;2.60;;;8.60;99.90;;;;;;4939307;29;20232;-91
2022/05/21 09:03:28;;;;;;;6.70;2.40;;;8.60;99.90;;;;;;4926002;29;20213;-91
2022/05/21 09:06:10;;;;;;;6.00;1.77;;;8.50;99.90;;;;;;4924431;29;20205;-91
2022/05/21 09:08:55;;;;;;;5.47;2.30;;;8.50;99.90;;;;;;4924274;29;20276;-91
2022/05/21 09:11:35;;;;;;;5.83;2.30;;;8.50;99.90;;;;;;4923509;29;20209;-91
2022/05/21 09:14:14;;;;;;;6.93;2.90;;;8.40;99.90;;;;;;4923890;29;20668;-91
2022/05/21 09:19:42;;;;;;;6.07;2.50;;;8.30;99.90;;;;;;4925494;29;20568;-91
2022/05/21 09:22:15;;;;;;;8.83;2.70;;;8.30;99.90;;;;;;4928842;29;20563;-91
2022/05/21 09:25:19;;;;;;;7.23;2.80;;;8.30;99.90;;;;;;4924964;29;20289;-92
2022/05/21 09:28:01;;;;;;;8.10;2.97;;;8.20;99.90;;;;;;4927348;29;20237;-89
2022/05/21 09:30:34;;;;;;;8.40;3.57;;;8.20;99.90;;;;;;4939944;29;20193;-91
2022/05/21 09:33:25;;;;;;;4.87;2.67;;;8.20;99.90;;;;;;4949763;29;20217;-92
2022/05/21 09:36:01;;;;;;;7.97;2.57;;;8.10;99.90;;;;;;4941600;29;20280;-92
2022/05/21 09:38:35;;;;;;;6.67;2.80;;;8.10;99.90;;;;;;4937279;29;20208;-91
2022/05/21 09:41:21;;;;;;;6.90;2.97;;;8.10;99.90;;;;;;4932838;29;20289;-91
2022/05/21 09:46:45;;;;;;;4.70;2.60;;;8.00;99.90;;;;;;4926404;29;20687;-89
2022/05/21 09:49:26;;;;;;;6.23;2.80;;;8.00;99.90;;;;;;4925724;29;20746;-91
2022/05/21 09:52:03;;;;;;;7.97;3.10;;;8.00;99.90;;;;;;4925336;29;20212;-91
2022/05/21 09:54:40;;;;;;;8.80;3.10;;;8.00;99.90;;;;;;4924846;29;20212;-92
2022/05/21 09:57:24;;;;;;;7.70;2.80;;;8.00;99.90;;;;;;4924620;29;20268;-91
2022/05/21 10:00:18;;;;;;;11.00;4.13;;;8.00;99.90;;;;;;4925121;29;20269;-91
2022/05/21 10:02:54;;;;;;;6.13;2.73;;;7.90;99.90;;;;;;4944607;29;20295;-91
2022/05/21 10:05:31;;;;;;;6.97;2.57;;;7.90;99.90;;;;;;4958069;29;20200;-89
2022/05/21 10:11:19;;;;;;;9.13;3.70;;;7.90;99.90;;;;;;4958514;28;20192;-91
2022/05/21 10:13:56;;;;;;;6.53;3.10;;;7.90;99.90;;;;;;4952616;28;20200;-90
2022/05/21 10:16:35;;;;;;;6.33;3.57;;;7.80;99.90;;;;;;4960405;28;20228;-91
2022/05/21 10:19:15;;;;;;;6.00;2.90;;;7.80;99.90;;;;;;4959601;28;20196;-91
2022/05/21 10:22:00;;;;;;;8.57;3.27;;;7.80;99.90;;;;;;4941579;28;20217;-91
2022/05/21 10:24:45;;;;;;;3.97;3.23;;;7.80;99.90;;;;;;4941213;28;20205;-91
2022/05/21 10:27:27;;;;;;;5.37;3.17;;;7.70;99.90;;;;;;4937972;28;20244;-92
2022/05/21 10:30:06;;;;;;;7.97;3.47;;;7.70;99.90;;;;;;4926538;29;20232;-91
2022/05/21 10:33:07;;;;;;;9.50;2.97;;;7.60;99.90;;;;;;4940165;29;20247;-90
2022/05/21 10:35:50;;;;;;;4.90;2.60;;;7.70;99.90;;;;;;4950222;29;20605;-91
2022/05/21 10:38:50;;;;;;;4.57;2.70;;;7.70;99.90;;;;;;4944894;29;20234;-91
2022/05/21 10:41:37;;;;;;;6.27;3.20;;;7.60;99.90;;;;;;5012835;23;20290;-91
2022/05/21 10:44:22;;;;;;;5.23;2.77;;;7.60;99.90;;;;;;5044324;28;20212;-91
2022/05/21 10:47:02;;;;;;;3.57;2.67;;;7.60;99.90;;;;;;5043651;28;20338;-91
2022/05/21 10:49:56;;;;;;;6.00;2.90;;;7.60;99.90;;;;;;5030371;28;20215;-90
2022/05/21 10:52:40;;;;;;;6.93;3.00;;;7.50;99.90;;;;;;5029072;28;20240;-90
2022/05/21 10:55:24;;;;;;;4.77;2.67;;;7.40;99.90;;;;;;5037875;28;20193;-89
2022/05/21 10:58:28;;;;;;;4.83;3.00;;;7.40;99.90;;;;;;5037087;28;20201;-89
2022/05/21 11:01:12;;;;;;;4.60;2.93;;;7.40;99.90;;;;;;5036673;28;20201;-90
2022/05/21 11:04:05;;;;;;;6.00;2.93;;;7.40;99.90;;;;;;5037044;28;20197;-89
2022/05/21 11:07:12;;;;;;;3.70;2.57;;;7.40;99.90;;;;;;5037110;28;20261;-90
2022/05/21 11:09:50;;;;;;;3.60;2.67;;;7.30;99.90;;;;;;5036008;28;20330;-90
2022/05/21 11:12:27;;;;;;;4.00;2.80;;;7.30;99.90;;;;;;5044439;28;20204;-90
2022/05/21 11:15:05;;;;;;;3.33;3.00;;;7.20;99.90;;;;;;5048202;28;20200;-90
2022/05/21 11:17:46;;;;;;;4.50;2.63;;;7.10;99.90;;;;;;5051993;28;20235;-91
2022/05/21 11:20:20;;;;;;;5.30;2.83;;;7.20;99.90;;;;;;5055759;28;20212;-91
2022/05/21 11:22:58;;;;;;;6.20;2.70;;;7.20;99.90;;;;;;5054848;28;20209;-90
2022/05/21 11:25:43;;;;;;;3.87;2.73;;;7.20;99.90;;;;;;5051814;28;20184;-91
2022/05/21 11:28:28;;;;;;;4.90;2.80;;;7.10;99.90;;;;;;5031920;28;20310;-91
2022/05/21 11:31:03;;;;;;;4.73;2.83;;;7.10;99.90;;;;;;5025032;28;20233;-91
2022/05/21 11:39:22;;;;;;;5.37;2.90;;;7.00;99.90;;;;;;5021928;28;20272;-91
2022/05/21 11:42:11;;;;;;;3.00;2.47;;;7.00;99.90;;;;;;5022253;28;20271;-90
2022/05/21 11:45:02;;;;;;;4.77;2.73;;;7.10;99.90;;;;;;5028822;28;20248;-90
2022/05/21 11:47:54;;;;;;;4.70;3.00;;;7.00;99.90;;;;;;5032741;28;20238;-91
2022/05/21 11:50:34;;;;;;;4.17;2.70;;;7.00;99.90;;;;;;5028495;28;20238;-91
2022/05/21 11:53:31;;;;;;;4.80;3.30;;;7.00;99.90;;;;;;5020460;28;20258;-91
2022/05/21 11:56:10;;;;;;;4.67;3.10;;;7.00;99.90;;;;;;5020833;28;20300;-90
2022/05/21 11:59:25;;;;;;;6.70;3.37;;;7.00;99.90;;;;;;5020155;28;20213;-90
2022/05/21 12:02:12;;;;;;;4.53;3.07;;;6.90;99.90;;;;;;5020234;28;20205;-90
2022/05/21 12:04:53;;;;;;;3.70;3.20;;;6.90;99.90;;;;;;5018642;28;20260;-91
2022/05/21 12:07:53;;;;;;;4.57;3.00;;;6.80;99.90;;;;;;5018628;28;20209;-91
2022/05/21 12:10:28;;;;;;;5.33;3.23;;;6.80;99.90;;;;;;5019041;28;20210;-90
2022/05/21 12:13:16;;;;;;;3.93;2.73;;;6.80;99.90;;;;;;5017558;28;20229;-90
2022/05/21 12:15:51;;;;;;;4.17;3.03;;;6.70;99.90;;;;;;5019736;28;20671;-90
2022/05/21 12:18:44;;;;;;;6.93;3.20;;;6.60;99.90;;;;;;5018687;28;20216;-90
2022/05/21 12:21:48;;;;;;;3.90;3.00;;;6.60;99.90;;;;;;5013245;28;20248;-91
2022/05/21 12:24:39;;;;;;;6.07;3.37;;;6.60;99.90;;;;;;5015067;28;20671;-91
2022/05/21 12:27:34;;;;;;;5.37;2.73;;;6.70;99.90;;;;;;5018043;28;20255;-91
2022/05/21 12:30:18;;;;;;;4.70;3.30;;;6.60;99.90;;;;;;5017954;28;20220;-90
2022/05/21 12:32:50;;;;;;;4.40;3.10;;;6.60;99.90;;;;;;5034023;28;20621;-90
2022/05/21 12:35:50;;;;;;;6.13;3.33;;;6.60;99.90;;;;;;5041821;28;20546;-91
2022/05/21 12:38:30;;;;;;;5.47;3.20;;;6.60;99.90;;;;;;5044023;28;20649;-91
2022/05/21 12:41:09;;;;;;;5.43;3.70;;;6.60;99.90;;;;;;5041799;28;20217;-91
2022/05/21 12:43:46;;;;;;;4.60;3.87;;;6.60;99.90;;;;;;5043253;28;20219;-92
2022/05/21 12:46:22;;;;;;;4.87;3.50;;;6.50;99.90;;;;;;5044444;28;20713;-91
2022/05/21 12:48:57;;;;;;;4.63;2.93;;;6.60;99.90;;;;;;5048757;28;20227;-91
2022/05/21 12:51:35;;;;;;;7.03;3.27;;;6.60;99.90;;;;;;5042624;28;20255;-91
2022/05/21 12:54:19;;;;;;;7.90;3.63;;;6.70;99.90;;;;;;5042765;28;20207;-89
2022/05/21 12:56:54;;;;;;;5.33;2.80;;;6.70;99.90;;;;;;5042280;28;20279;-90
2022/05/21 12:59:29;;;;;;;5.43;3.10;;;6.80;99.90;;;;;;5044295;28;20239;-90
2022/05/21 13:02:03;;;;;;;8.73;2.93;;;6.80;99.90;;;;;;5035308;28;20266;-90
2022/05/21 13:04:38;;;;;;;7.13;3.10;;;6.80;99.90;;;;;;5021232;28;20201;-90
2022/05/21 13:07:16;;;;;;;5.20;2.97;;;6.80;99.90;;;;;;5021111;28;20549;-90
2022/05/21 13:09:58;;;;;;;3.87;2.73;;;6.80;99.90;;;;;;5019253;28;20362;-91
2022/05/21 13:12:40;;;;;;;6.20;3.30;;;6.80;99.90;;;;;;5024654;28;20225;-90
2022/05/21 13:15:14;;;;;;;5.80;2.90;;;6.90;99.90;;;;;;5020270;28;20244;-90
2022/05/21 13:17:51;;;;;;;6.00;3.60;;;6.90;99.90;;;;;;5020481;28;20267;-90
2022/05/21 13:20:33;;;;;;;5.33;3.50;;;6.90;99.90;;;;;;5020293;28;20295;-90
2022/05/21 13:23:25;;;;;;;4.53;3.07;;;6.90;99.90;;;;;;5020072;28;20240;-90
2022/05/21 13:25:57;;;;;;;5.80;3.60;;;7.00;99.90;;;;;;5018807;28;20233;-90
2022/05/21 13:28:31;;;;;;;5.43;3.17;;;7.00;99.90;;;;;;5019583;28;20244;-89
2022/05/21 13:31:02;;;;;;;5.07;3.63;;;7.10;99.90;;;;;;5019530;28;20660;-91
2022/05/21 13:33:36;;;;;;;5.63;3.20;;;7.10;99.90;;;;;;5021269;28;20228;-90
2022/05/21 13:36:15;;;;;;;6.00;3.30;;;7.20;99.90;;;;;;5022061;28;20265;-90
2022/05/21 13:38:51;;;;;;;7.23;2.90;;;7.30;99.90;;;;;;5021829;28;20247;-89
2022/05/21 13:41:31;;;;;;;5.37;3.03;;;7.50;99.90;;;;;;5021994;28;20247;-90
2022/05/21 13:44:07;;;;;;;3.80;3.00;;;7.60;99.90;;;;;;5021833;28;20275;-90
2022/05/21 13:46:41;;;;;;;5.47;2.90;;;7.80;99.90;;;;;;5021031;28;20233;-90
2022/05/21 13:49:23;;;;;;;5.33;2.67;;;8.00;99.90;;;;;;5021241;28;20248;-90
2022/05/21 13:51:55;;;;;;;3.70;2.57;;;8.20;99.90;;;;;;5021335;28;20240;-90
2022/05/21 13:54:30;;;;;;;4.63;2.67;;;8.40;99.90;;;;;;5021572;28;20651;-90
2022/05/21 13:57:23;;;;;;;4.43;2.50;;;8.70;99.90;;;;;;5021376;28;20240;-90
2022/05/21 13:59:59;;;;;;;3.93;2.30;;;8.80;99.90;;;;;;5018207;28;20225;-90
2022/05/21 14:02:38;;;;;;;4.27;2.30;;;9.00;99.90;;;;;;5020542;28;20686;-90
2022/05/21 14:05:25;;;;;;;4.20;2.23;;;9.10;99.90;;;;;;5020278;28;20255;-90
2022/05/21 14:07:59;;;;;;;4.40;2.00;;;9.20;99.90;;;;;;5035398;28;20281;-91
2022/05/21 14:10:43;;;;;;;5.17;2.43;;;9.30;99.90;;;;;;5034942;28;20213;-90
2022/05/21 14:13:30;;;;;;;4.00;2.10;;;9.40;99.90;;;;;;5029254;28;20241;-90
2022/05/21 14:16:07;;;;;;;6.70;2.43;;;9.50;99.90;;;;;;5024437;28;20564;-90
2022/05/21 14:18:41;;;;;;;3.63;2.20;;;9.60;99.90;;;;;;5021334;28;20213;-90
2022/05/21 14:21:22;;;;;;;4.07;2.10;;;9.60;99.90;;;;;;5020653;28;20228;-90
2022/05/21 14:24:10;;;;;;;5.87;2.13;;;9.60;99.90;;;;;;5026260;28;20217;-90
2022/05/21 14:26:41;;;;;;;4.47;1.83;;;9.60;99.90;;;;;;5025355;28;20225;-90
2022/05/21 14:29:48;;;;;;;6.20;1.90;;;9.70;99.90;;;;;;5021561;28;20237;-91
2022/05/21 14:32:31;;;;;;;5.80;2.37;;;9.90;99.90;;;;;;5013699;28;20291;-92
2022/05/21 14:35:17;;;;;;;4.03;2.13;;;10.10;99.90;;;;;;5019855;28;20246;-91
2022/05/21 14:37:50;;;;;;;5.37;2.37;;;10.20;99.90;;;;;;5020457;28;20220;-91
2022/05/21 14:40:22;;;;;;;5.60;2.10;;;10.30;99.90;;;;;;5005411;28;20312;-90
2022/05/21 14:42:55;;;;;;;5.23;2.20;;;10.50;99.90;;;;;;5000231;28;20222;-89
2022/05/21 14:45:32;;;;;;;5.07;2.33;;;10.40;99.90;;;;;;5000450;28;20210;-90
2022/05/21 14:48:05;;;;;;;5.23;2.10;;;10.50;99.90;;;;;;5006434;28;20624;-91
2022/05/21 14:53:34;;;;;;;8.53;2.20;;;10.60;99.90;;;;;;5019983;28;20238;-91
2022/05/21 14:56:06;;;;;;;5.00;1.93;;;10.70;99.90;;;;;;5018684;28;20197;-90
2022/05/21 14:58:38;;;;;;;4.27;1.90;;;10.90;99.90;;;;;;5018722;28;20258;-91